createdAt,value
2022-10-11T00:00:22.443Z,61.33
2022-10-11T00:03:10.178Z,60.26
2022-10-11T00:05:38.101Z,58.41
2022-10-11T00:08:06.124Z,57.84
2022-10-11T00:10:33.884Z,59.18
2022-10-11T00:13:01.735Z,58.49
2022-10-11T00:15:29.534Z,60.29
2022-10-11T00:17:57.268Z,60.79
2022-10-11T00:20:25.132Z,66.38
2022-10-11T00:22:53.120Z,70.34
2022-10-11T00:25:21.480Z,66.97
2022-10-11T00:27:49.413Z,62.03
2022-10-11T00:30:17.414Z,58.41
2022-10-11T00:32:45.134Z,57.62
2022-10-11T00:35:12.956Z,60.14
2022-10-11T00:37:40.670Z,62.75
2022-10-11T00:40:13.202Z,66.77
2022-10-11T00:42:41.018Z,64.51
2022-10-11T00:45:27.067Z,60.28
2022-10-11T00:47:56.333Z,55.16
2022-10-11T00:50:24.143Z,56.50
2022-10-11T00:52:57.924Z,58.61
2022-10-11T00:55:27.000Z,59.35
2022-10-11T00:57:54.928Z,63.76
2022-10-11T01:00:23.062Z,65.78
2022-10-11T01:02:50.865Z,63.70
2022-10-11T01:05:29.217Z,60.61
2022-10-11T01:08:00.979Z,55.45
2022-10-11T01:10:28.767Z,56.65
2022-10-11T01:13:36.172Z,57.56
2022-10-11T01:16:32.353Z,62.14
2022-10-11T01:19:43.268Z,66.00
2022-10-11T01:22:43.559Z,61.83
2022-10-11T01:25:39.526Z,63.04
2022-10-11T01:28:38.029Z,55.92
2022-10-11T01:31:19.751Z,54.92
2022-10-11T01:34:11.366Z,57.07
2022-10-11T01:36:49.991Z,60.54
2022-10-11T01:39:39.156Z,63.77
2022-10-11T01:42:07.784Z,64.34
2022-10-11T01:44:35.507Z,64.10
2022-10-11T01:47:03.371Z,61.79
2022-10-11T01:49:31.133Z,57.23
2022-10-11T01:52:01.075Z,56.73
2022-10-11T01:55:08.286Z,59.65
2022-10-11T01:58:05.107Z,62.04
2022-10-11T02:00:51.788Z,64.35
2022-10-11T02:04:01.995Z,64.91
2022-10-11T02:06:52.844Z,59.49
2022-10-11T02:09:31.523Z,55.27
2022-10-11T02:12:08.556Z,57.83
2022-10-11T02:14:40.615Z,58.32
2022-10-11T02:17:18.015Z,61.20
2022-10-11T02:19:49.558Z,64.91
2022-10-11T02:22:28.438Z,63.80
2022-10-11T02:24:58.085Z,61.80
2022-10-11T02:27:27.887Z,61.09
2022-10-11T02:29:58.492Z,60.98
2022-10-11T02:32:26.394Z,60.75
2022-10-11T02:34:55.971Z,60.10
2022-10-11T02:37:43.137Z,58.35
2022-10-11T02:40:12.545Z,58.17
2022-10-11T02:42:45.445Z,59.11
2022-10-11T02:45:24.252Z,60.62
2022-10-11T02:47:52.395Z,63.70
2022-10-11T02:50:21.896Z,65.23
2022-10-11T02:52:49.659Z,64.46
2022-10-11T02:55:17.526Z,63.56
2022-10-11T02:57:45.619Z,62.68
2022-10-11T03:00:14.590Z,62.24
2022-10-11T03:02:42.314Z,61.34
2022-10-11T03:05:10.017Z,60.71
2022-10-11T03:07:37.776Z,60.31
2022-10-11T03:10:06.283Z,60.01
2022-10-11T03:12:34.126Z,59.53
2022-10-11T03:15:02.396Z,57.70
2022-10-11T03:17:37.635Z,57.34
2022-10-11T03:20:06.580Z,57.90
2022-10-11T03:22:34.697Z,58.66
2022-10-11T03:25:04.358Z,59.66
2022-10-11T03:27:33.609Z,59.37
2022-10-11T03:30:01.470Z,59.47
2022-10-11T03:32:29.439Z,59.13
2022-10-11T03:34:57.152Z,60.31
2022-10-11T03:37:25.582Z,63.05
2022-10-11T03:39:53.665Z,70.20
2022-10-11T03:42:21.511Z,70.02
2022-10-11T03:44:52.030Z,68.37
2022-10-11T03:47:20.117Z,67.74
2022-10-11T03:49:47.809Z,66.55
2022-10-11T03:52:15.544Z,65.60
2022-10-11T03:54:43.258Z,65.02
2022-10-11T03:57:10.965Z,64.42
2022-10-11T03:59:38.718Z,63.65
2022-10-11T04:02:06.514Z,62.43
2022-10-11T04:04:34.502Z,62.06
2022-10-11T04:07:02.252Z,61.60
2022-10-11T04:09:29.990Z,60.39
2022-10-11T04:11:57.768Z,58.83
2022-10-11T04:14:26.261Z,59.15
2022-10-11T04:16:56.401Z,61.73
2022-10-11T04:19:27.710Z,66.83
2022-10-11T04:21:55.462Z,68.44
2022-10-11T04:24:23.231Z,67.81
2022-10-11T04:26:50.973Z,63.78
2022-10-11T04:29:18.658Z,59.46
2022-10-11T04:31:46.336Z,54.98
2022-10-11T04:34:14.147Z,56.35
2022-10-11T04:36:43.578Z,58.25
2022-10-11T04:39:14.001Z,58.32
2022-10-11T04:41:41.656Z,59.11
2022-10-11T04:44:09.311Z,59.80
2022-10-11T04:46:37.025Z,60.09
2022-10-11T04:49:04.751Z,60.95
2022-10-11T04:51:33.873Z,67.98
2022-10-11T04:54:01.550Z,69.79
2022-10-11T04:56:30.738Z,68.70
2022-10-11T04:58:58.424Z,68.58
2022-10-11T05:01:26.202Z,64.53
2022-10-11T05:03:53.914Z,61.74
2022-10-11T05:06:21.618Z,56.70
2022-10-11T05:08:49.419Z,55.38
2022-10-11T05:11:17.523Z,56.97
2022-10-11T05:13:45.543Z,58.99
2022-10-11T05:16:14.086Z,61.83
2022-10-11T05:18:42.064Z,65.31
2022-10-11T05:21:22.291Z,66.85
2022-10-11T05:23:50.672Z,64.86
2022-10-11T05:26:19.435Z,63.79
2022-10-11T05:28:47.425Z,63.71
2022-10-11T05:31:16.364Z,63.35
2022-10-11T05:33:44.136Z,62.03
2022-10-11T05:36:12.007Z,61.54
2022-10-11T05:38:39.873Z,60.19
2022-10-11T05:41:09.315Z,59.65
2022-10-11T05:43:37.196Z,58.66
2022-10-11T05:46:05.889Z,57.48
2022-10-11T05:48:33.852Z,59.57
2022-10-11T05:51:04.309Z,59.98
2022-10-11T05:53:32.244Z,58.71
2022-10-11T05:56:00.158Z,60.26
2022-10-11T05:58:28.152Z,64.23
2022-10-11T06:00:57.039Z,66.49
2022-10-11T06:03:24.905Z,65.98
2022-10-11T06:05:56.741Z,63.67
2022-10-11T06:08:24.956Z,62.26
2022-10-11T06:10:52.618Z,61.38
2022-10-11T06:13:20.368Z,61.30
2022-10-11T06:15:48.057Z,60.61
2022-10-11T06:18:15.760Z,60.19
2022-10-11T06:20:43.493Z,60.14
2022-10-11T06:23:11.137Z,58.14
2022-10-11T06:25:38.856Z,58.89
2022-10-11T06:28:06.786Z,61.73
2022-10-11T06:30:34.651Z,63.53
2022-10-11T06:33:04.847Z,63.92
2022-10-11T06:35:33.031Z,62.42
2022-10-11T06:38:00.976Z,61.03
2022-10-11T06:40:29.446Z,60.92
2022-10-11T06:42:57.180Z,60.30
2022-10-11T06:45:24.876Z,60.48
2022-10-11T06:47:52.577Z,59.23
2022-10-11T06:50:40.642Z,57.40
2022-10-11T06:53:08.760Z,58.64
2022-10-11T06:55:36.439Z,63.10
2022-10-11T06:58:04.136Z,62.78
2022-10-11T07:00:31.889Z,60.20
2022-10-11T07:03:00.309Z,54.60
2022-10-11T07:05:29.504Z,55.35
2022-10-11T07:07:57.178Z,58.80
2022-10-11T07:10:25.071Z,60.43
2022-10-11T07:12:52.826Z,61.71
2022-10-11T07:15:20.537Z,65.57
2022-10-11T07:17:48.330Z,60.42
2022-10-11T07:20:16.047Z,56.35
2022-10-11T07:22:43.755Z,55.69
2022-10-11T07:25:11.422Z,57.34
2022-10-11T07:27:39.199Z,62.62
2022-10-11T07:30:07.908Z,62.15
2022-10-11T07:32:35.669Z,60.65
2022-10-11T07:35:03.496Z,58.67
2022-10-11T07:37:31.321Z,56.81
2022-10-11T07:39:59.088Z,56.81
2022-10-11T07:42:27.035Z,56.46
2022-10-11T07:44:54.927Z,58.65
2022-10-11T07:47:22.614Z,59.78
2022-10-11T07:49:50.349Z,60.72
2022-10-11T07:52:18.012Z,59.42
2022-10-11T07:54:49.257Z,60.14
2022-10-11T07:57:16.963Z,60.72
2022-10-11T07:59:49.279Z,60.97
2022-10-11T08:02:17.943Z,59.60
2022-10-11T08:04:45.663Z,60.58
2022-10-11T08:07:13.379Z,63.83
2022-10-11T08:09:41.235Z,62.92
2022-10-11T08:12:10.092Z,59.25
2022-10-11T08:14:37.869Z,57.36
2022-10-11T08:17:05.743Z,57.33
2022-10-11T08:19:33.528Z,56.95
2022-10-11T08:22:01.337Z,58.81
2022-10-11T08:24:29.125Z,58.39
2022-10-11T08:26:57.396Z,59.99
2022-10-11T08:29:25.116Z,60.92
2022-10-11T08:31:52.889Z,59.67
2022-10-11T08:34:20.554Z,61.38
2022-10-11T08:36:48.706Z,61.08
2022-10-11T08:39:16.486Z,61.33
2022-10-11T08:41:50.301Z,61.74
2022-10-11T08:47:43.267Z,61.46
2022-10-11T08:50:19.889Z,61.00
2022-10-11T08:52:57.864Z,60.68
2022-10-11T08:55:32.261Z,61.45
2022-10-11T08:57:59.958Z,60.97
2022-10-11T09:00:31.125Z,60.36
2022-10-11T09:03:22.506Z,62.63
2022-10-11T09:06:13.398Z,62.51
2022-10-11T09:09:02.111Z,61.56
2022-10-11T09:11:45.285Z,57.13
2022-10-11T09:14:38.223Z,57.47
2022-10-11T09:17:21.869Z,58.03
2022-10-11T09:20:08.969Z,58.64
2022-10-11T09:22:51.742Z,57.82
2022-10-11T09:25:35.470Z,59.72
2022-10-11T09:28:21.827Z,60.21
2022-10-11T09:30:52.858Z,59.69
2022-10-11T09:33:24.754Z,60.36
2022-10-11T09:35:52.750Z,61.27
2022-10-11T09:38:40.269Z,61.37
2022-10-11T09:41:18.286Z,62.63
2022-10-11T09:43:50.102Z,65.60
2022-10-11T09:46:40.889Z,64.89
2022-10-11T09:49:12.957Z,62.36
2022-10-11T09:51:43.383Z,61.11
2022-10-11T09:54:11.148Z,61.85
2022-10-11T09:56:43.662Z,61.54
2022-10-11T09:59:28.804Z,61.09
2022-10-11T10:02:15.099Z,58.03
2022-10-11T10:04:56.066Z,57.45
2022-10-11T10:07:23.854Z,59.02
2022-10-11T10:09:52.825Z,60.56
2022-10-11T10:12:30.362Z,65.52
2022-10-11T10:15:14.342Z,65.70
2022-10-11T10:17:49.785Z,63.47
2022-10-11T10:20:32.455Z,61.72
2022-10-11T10:23:25.158Z,61.18
2022-10-11T10:25:54.633Z,58.60
2022-10-11T10:28:24.998Z,58.28
2022-10-11T10:30:56.302Z,58.95
2022-10-11T10:33:26.506Z,60.27
2022-10-11T10:35:56.229Z,61.21
2022-10-11T10:38:32.830Z,63.74
2022-10-11T10:41:10.972Z,63.77
2022-10-11T10:43:41.113Z,61.65
2022-10-11T10:46:53.346Z,59.64
2022-10-11T10:52:50.233Z,59.13
2022-10-11T10:55:44.674Z,60.89
2022-10-11T10:59:03.525Z,61.88
2022-10-11T11:01:33.704Z,63.53
2022-10-11T11:04:19.935Z,61.84
2022-10-11T11:06:54.893Z,59.91
2022-10-11T11:09:35.544Z,57.09
2022-10-11T11:12:15.914Z,56.82
2022-10-11T11:15:04.469Z,58.75
2022-10-11T11:17:51.893Z,59.07
2022-10-11T11:21:00.811Z,59.16
2022-10-11T11:24:06.258Z,59.53
2022-10-11T11:26:44.404Z,61.21
2022-10-11T11:29:55.659Z,62.45
2022-10-11T11:32:49.424Z,61.09
2022-10-11T11:35:28.711Z,58.22
2022-10-11T11:38:06.346Z,57.15
2022-10-11T11:40:39.027Z,58.17
2022-10-11T11:43:26.657Z,58.48
2022-10-11T11:46:01.590Z,58.52
2022-10-11T11:48:29.300Z,60.38
2022-10-11T11:51:09.059Z,60.07
2022-10-11T11:54:01.340Z,60.19
2022-10-11T11:56:59.359Z,60.77
2022-10-11T11:59:29.009Z,62.99
2022-10-11T12:02:29.086Z,64.20
2022-10-11T12:04:57.180Z,60.32
2022-10-11T12:07:25.911Z,56.83
2022-10-11T12:10:29.296Z,55.58
2022-10-11T12:13:12.407Z,57.32
2022-10-11T12:15:40.169Z,58.22
2022-10-11T12:18:15.592Z,58.72
2022-10-11T12:20:43.716Z,59.85
2022-10-11T12:23:30.070Z,61.04
2022-10-11T12:26:29.214Z,62.94
2022-10-11T12:29:20.753Z,65.10
2022-10-11T12:31:59.347Z,61.76
2022-10-11T12:34:37.941Z,56.64
2022-10-11T12:37:17.781Z,55.57
2022-10-11T12:39:55.952Z,56.49
2022-10-11T12:42:29.061Z,58.58
2022-10-11T12:45:19.574Z,58.70
2022-10-11T12:48:01.133Z,59.53
2022-10-11T12:50:34.856Z,60.71
2022-10-11T12:53:12.314Z,60.93
2022-10-11T12:55:48.890Z,61.12
2022-10-11T12:58:45.362Z,63.65
2022-10-11T13:01:22.738Z,63.47
2022-10-11T13:04:27.043Z,60.30
2022-10-11T13:07:06.890Z,55.21
2022-10-11T13:09:40.060Z,54.53
2022-10-11T13:12:21.264Z,55.71
2022-10-11T13:15:21.414Z,58.05
2022-10-11T13:17:50.452Z,59.99
2022-10-11T13:20:21.912Z,59.87
2022-10-11T13:22:52.897Z,61.47
2022-10-11T13:25:24.245Z,63.25
2022-10-11T13:27:53.943Z,62.40
2022-10-11T13:30:32.784Z,58.44
2022-10-11T13:33:01.042Z,58.03
2022-10-11T13:35:37.819Z,59.18
2022-10-11T13:38:23.300Z,60.50
2022-10-11T13:40:53.651Z,61.66
2022-10-11T13:43:24.562Z,61.22
2022-10-11T13:46:06.566Z,63.76
2022-10-11T13:48:40.139Z,67.17
2022-10-11T13:51:27.730Z,64.72
2022-10-11T13:54:10.541Z,62.99
2022-10-11T13:56:49.932Z,61.44
2022-10-11T13:59:23.319Z,60.69
2022-10-11T14:01:56.687Z,60.09
2022-10-11T14:04:29.569Z,58.86
2022-10-11T14:07:00.236Z,57.84
2022-10-11T14:09:33.192Z,57.65
2022-10-11T14:12:25.901Z,59.03
2022-10-11T14:14:53.596Z,59.98
2022-10-11T14:17:32.141Z,61.98
2022-10-11T14:20:39.473Z,66.17
2022-10-11T14:23:07.385Z,62.43
2022-10-11T14:25:35.175Z,59.32
2022-10-11T14:28:02.964Z,56.79
2022-10-11T14:30:31.765Z,57.30
2022-10-11T14:33:01.271Z,59.37
2022-10-11T14:35:31.321Z,61.21
2022-10-11T14:37:59.437Z,63.11
2022-10-11T14:40:31.783Z,67.46
2022-10-11T14:42:59.533Z,64.51
2022-10-11T14:45:28.413Z,61.43
2022-10-11T14:47:56.187Z,60.48
2022-10-11T14:50:42.305Z,60.21
2022-10-11T14:53:10.728Z,59.76
2022-10-11T14:55:39.071Z,58.82
2022-10-11T14:58:07.078Z,58.43
2022-10-11T15:00:35.744Z,59.46
2022-10-11T15:03:04.906Z,60.78
2022-10-11T15:05:34.366Z,61.97
2022-10-11T15:08:04.175Z,66.98
2022-10-11T15:10:39.996Z,66.63
2022-10-11T15:13:08.268Z,63.70
2022-10-11T15:15:37.671Z,62.69
2022-10-11T15:18:06.555Z,62.09
2022-10-11T15:20:40.329Z,61.43
2022-10-11T15:23:09.835Z,60.75
2022-10-11T15:25:39.382Z,60.26
2022-10-11T15:28:08.045Z,60.11
2022-10-11T15:30:40.948Z,59.81
2022-10-11T15:33:09.254Z,59.56
2022-10-11T15:35:36.992Z,58.76
2022-10-11T15:38:04.734Z,58.38
2022-10-11T15:40:35.567Z,59.48
2022-10-11T15:43:03.769Z,61.89
2022-10-11T15:45:31.554Z,64.52
2022-10-11T15:47:59.463Z,63.76
2022-10-11T15:50:39.715Z,62.92
2022-10-11T15:53:19.359Z,61.72
2022-10-11T15:55:55.660Z,60.74
2022-10-11T15:58:37.623Z,61.21
2022-10-11T16:01:14.498Z,60.43
2022-10-11T16:03:42.994Z,60.34
2022-10-11T16:06:11.255Z,60.09
2022-10-11T16:08:39.408Z,60.35
2022-10-11T16:11:07.676Z,59.97
2022-10-11T16:13:35.804Z,59.22
2022-10-11T16:16:05.945Z,59.36
2022-10-11T16:18:35.554Z,58.87
2022-10-11T16:21:09.627Z,63.22
2022-10-11T16:23:38.273Z,65.18
2022-10-11T16:26:08.926Z,63.22
2022-10-11T16:28:37.942Z,62.45
2022-10-11T16:31:20.794Z,61.27
2022-10-11T16:33:48.975Z,61.12
2022-10-11T16:36:40.569Z,60.49
2022-10-11T16:39:14.556Z,60.12
2022-10-11T16:41:42.845Z,60.09
2022-10-11T16:44:15.828Z,60.00
2022-10-11T16:46:48.263Z,58.87
2022-10-11T16:49:22.404Z,58.77
2022-10-11T16:51:51.504Z,60.42
2022-10-11T16:54:20.745Z,60.17
2022-10-11T16:56:49.676Z,60.67
2022-10-11T16:59:17.565Z,65.33
2022-10-11T17:01:46.090Z,64.64
2022-10-11T17:04:13.896Z,63.15
2022-10-11T17:06:43.995Z,61.52
2022-10-11T17:09:11.902Z,60.80
2022-10-11T17:11:40.680Z,59.99
2022-10-11T17:14:08.651Z,58.21
2022-10-11T17:16:36.375Z,58.11
2022-10-11T17:19:04.326Z,59.68
2022-10-11T17:21:32.144Z,59.11
2022-10-11T17:23:59.917Z,62.70
2022-10-11T17:26:27.982Z,64.98
2022-10-11T17:28:59.533Z,64.11
2022-10-11T17:31:28.220Z,60.78
2022-10-11T17:33:59.806Z,60.24
2022-10-11T17:36:31.809Z,60.12
2022-10-11T17:39:00.338Z,60.02
2022-10-11T17:41:31.839Z,60.05
2022-10-11T17:44:01.406Z,60.07
2022-10-11T17:46:32.663Z,59.77
2022-10-11T17:49:02.009Z,57.78
2022-10-11T17:51:29.722Z,57.55
2022-10-11T17:53:57.676Z,58.34
2022-10-11T17:56:29.685Z,58.73
2022-10-11T17:59:00.303Z,59.40
2022-10-11T18:01:28.685Z,59.63
2022-10-11T18:03:59.626Z,60.16
2022-10-11T18:06:30.319Z,60.22
2022-10-11T18:09:00.601Z,67.01
2022-10-11T18:11:28.524Z,68.93
2022-10-11T18:13:56.443Z,65.08
2022-10-11T18:16:27.163Z,62.71
2022-10-11T18:18:55.071Z,62.13
2022-10-11T18:21:31.370Z,61.64
2022-10-11T18:24:03.550Z,59.24
2022-10-11T18:26:31.477Z,56.38
2022-10-11T18:28:59.805Z,57.16
2022-10-11T18:31:29.367Z,58.73
2022-10-11T18:33:57.464Z,58.16
2022-10-11T18:36:27.865Z,58.05
2022-10-11T18:38:58.112Z,58.18
2022-10-11T18:41:31.954Z,57.74
2022-10-11T18:44:02.611Z,58.18
2022-10-11T18:46:30.631Z,58.80
2022-10-11T18:49:02.109Z,59.29
2022-10-11T18:51:35.376Z,61.33
2022-10-11T18:54:04.380Z,61.83
2022-10-11T18:56:32.717Z,65.72
2022-10-11T18:59:00.919Z,71.19
2022-10-11T19:01:34.401Z,70.26
2022-10-11T19:04:03.545Z,67.39
2022-10-11T19:06:35.293Z,65.12
2022-10-11T19:09:11.398Z,63.34
2022-10-11T19:11:39.604Z,62.07
2022-10-11T19:14:11.548Z,60.76
2022-10-11T19:16:42.655Z,59.92
2022-10-11T19:19:11.119Z,57.32
2022-10-11T19:21:39.142Z,55.59
2022-10-11T19:24:07.401Z,56.07
2022-10-11T19:26:38.760Z,57.09
2022-10-11T19:29:09.957Z,56.04
2022-10-11T19:31:44.627Z,56.37
2022-10-11T19:34:12.530Z,56.90
2022-10-11T19:36:42.733Z,57.33
2022-10-11T19:39:14.804Z,59.77
2022-10-11T19:41:43.178Z,60.46
2022-10-11T19:44:12.350Z,65.36
2022-10-11T19:46:56.957Z,70.66
2022-10-11T19:49:27.431Z,67.13
2022-10-11T19:51:55.814Z,63.92
2022-10-11T19:54:23.987Z,63.11
2022-10-11T19:56:52.699Z,61.37
2022-10-11T19:59:20.540Z,60.18
2022-10-11T20:01:52.724Z,59.37
2022-10-11T20:07:09.181Z,55.91
2022-10-11T20:09:37.035Z,56.81
2022-10-11T20:12:04.854Z,57.01
2022-10-11T20:14:32.548Z,56.47
2022-10-11T20:17:00.586Z,58.94
2022-10-11T20:19:31.043Z,60.46
2022-10-11T20:22:00.609Z,66.07
2022-10-11T20:24:33.106Z,69.39
2022-10-11T20:27:03.771Z,67.54
2022-10-11T20:29:31.644Z,64.92
2022-10-11T20:31:59.736Z,64.26
2022-10-11T20:34:27.854Z,63.08
2022-10-11T20:36:56.057Z,61.19
2022-10-11T20:39:23.888Z,59.70
2022-10-11T20:41:51.625Z,56.75
2022-10-11T20:44:19.388Z,54.83
2022-10-11T20:46:47.086Z,54.03
2022-10-11T20:49:14.871Z,53.77
2022-10-11T20:51:42.724Z,54.69
2022-10-11T20:54:11.913Z,55.40
2022-10-11T20:56:40.385Z,56.47
2022-10-11T20:59:08.361Z,57.47
2022-10-11T21:01:38.940Z,58.56
2022-10-11T21:04:07.999Z,61.44
2022-10-11T21:06:35.780Z,66.94
2022-10-11T21:09:03.573Z,70.25
2022-10-11T21:11:33.659Z,69.64
2022-10-11T21:14:03.715Z,66.12
2022-10-11T21:16:32.184Z,64.00
2022-10-11T21:19:00.831Z,62.27
2022-10-11T21:21:29.187Z,60.45
2022-10-11T21:24:01.495Z,58.62
2022-10-11T21:26:29.685Z,55.20
2022-10-11T21:28:59.352Z,54.78
2022-10-11T21:31:32.717Z,54.36
2022-10-11T21:34:02.751Z,55.85
2022-10-11T21:36:30.560Z,55.64
2022-10-11T21:38:58.328Z,55.75
2022-10-11T21:41:26.766Z,62.29
2022-10-11T21:43:54.519Z,71.01
2022-10-11T21:46:32.526Z,67.24
2022-10-11T21:49:09.904Z,61.25
2022-10-11T21:51:37.663Z,58.46
2022-10-11T21:54:05.783Z,55.40
2022-10-11T21:56:33.489Z,54.70
2022-10-11T21:59:01.217Z,54.57
2022-10-11T22:01:29.003Z,54.91
2022-10-11T22:03:56.818Z,55.91
2022-10-11T22:06:24.569Z,58.09
2022-10-11T22:08:54.548Z,57.58
2022-10-11T22:11:22.324Z,58.78
2022-10-11T22:13:50.162Z,63.36
2022-10-11T22:16:18.095Z,73.35
2022-10-11T22:18:49.296Z,68.54
2022-10-11T22:21:23.217Z,61.27
2022-10-11T22:23:52.103Z,54.65
2022-10-11T22:26:27.737Z,52.34
2022-10-11T22:28:59.615Z,53.03
2022-10-11T22:31:31.440Z,54.91
2022-10-11T22:34:00.300Z,53.99
2022-10-11T22:36:30.644Z,54.41
2022-10-11T22:38:59.034Z,60.30
2022-10-11T22:41:26.813Z,68.02
2022-10-11T22:43:54.459Z,68.60
2022-10-11T22:46:22.339Z,62.30
2022-10-11T22:48:50.185Z,59.64
2022-10-11T22:51:17.854Z,53.88
2022-10-11T22:53:45.646Z,51.68
2022-10-11T22:56:13.606Z,51.71
2022-10-11T22:58:41.353Z,54.02
2022-10-11T23:01:10.967Z,53.63
2022-10-11T23:03:38.847Z,52.87
2022-10-11T23:06:06.738Z,55.32
2022-10-11T23:08:34.544Z,57.83
2022-10-11T23:11:06.490Z,60.23
2022-10-11T23:13:34.781Z,61.95
2022-10-11T23:16:08.042Z,71.45
2022-10-11T23:18:36.048Z,67.79
2022-10-11T23:21:04.248Z,64.22
2022-10-11T23:23:32.026Z,62.44
2022-10-11T23:26:08.416Z,59.85
2022-10-11T23:28:36.362Z,56.83
2022-10-11T23:31:17.585Z,55.28
2022-10-11T23:33:45.866Z,54.69
2022-10-11T23:36:19.164Z,53.97
2022-10-11T23:38:54.299Z,55.71
2022-10-11T23:41:23.956Z,55.77
2022-10-11T23:43:51.679Z,59.50
2022-10-11T23:46:19.514Z,58.30
2022-10-11T23:48:47.330Z,59.88
2022-10-11T23:51:15.330Z,60.09
2022-10-11T23:53:43.025Z,67.85
2022-10-11T23:56:11.616Z,72.05
2022-10-11T23:58:39.534Z,70.25
